Time;durP1;ratioP1;P1;durP2;ratioP2;P2;SDS_P1;SDS_P2;PMS_P1;PMS_P2;Temp;Humidity;BMP_temperature;BMP_pressure;BME280_temperature;BME280_humidity;BME280_pressure;Samples;Min_cycle;Max_cycle;Signal;HPM_P1;HPM_P2
2021/04/03 00:01:00;;;;;;;24.83;12.82;;;;;;;14.98;36.91;103483.41;4982805;28;20142;-76
2021/04/03 00:03:28;;;;;;;26.95;13.73;;;;;;;14.99;36.74;103485.06;4980330;28;20117;-76
2021/04/03 00:05:54;;;;;;;18.23;13.05;;;;;;;14.89;36.71;103485.88;4973868;28;20030;-79
2021/04/03 00:08:25;;;;;;;18.10;13.75;;;;;;;14.90;36.68;103481.22;4973974;28;20038;-76
2021/04/03 00:10:52;;;;;;;21.83;12.32;;;;;;;14.91;36.80;103489.19;4973908;28;20026;-78
2021/04/03 00:13:19;;;;;;;16.30;11.65;;;;;;;14.88;36.82;103492.47;4973745;28;20501;-76
2021/04/03 00:15:45;;;;;;;16.35;10.90;;;;;;;14.79;36.80;103488.63;4973779;28;20054;-78
2021/04/03 00:18:15;;;;;;;20.45;12.75;;;;;;;14.80;36.83;103489.44;4973688;28;20033;-80
2021/04/03 00:20:42;;;;;;;17.75;11.82;;;;;;;14.76;36.79;103493.88;4973630;28;20027;-79
2021/04/03 00:23:08;;;;;;;14.88;12.27;;;;;;;14.68;36.87;103495.22;4973488;28;20572;-76
2021/04/03 00:25:34;;;;;;;16.05;11.85;;;;;;;14.59;37.05;103492.19;4973473;28;20158;-80
2021/04/03 00:28:00;;;;;;;17.75;12.05;;;;;;;14.56;37.05;103486.41;4973390;28;20026;-76
2021/04/03 00:30:26;;;;;;;17.92;13.02;;;;;;;14.54;37.04;103478.44;4973345;28;20038;-80
2021/04/03 00:32:59;;;;;;;17.95;11.43;;;;;;;14.55;36.99;103484.75;4973254;28;20027;-80
2021/04/03 00:35:29;;;;;;;18.60;12.23;;;;;;;14.54;36.87;103485.88;4973318;28;20612;-77
2021/04/03 00:37:56;;;;;;;16.90;11.38;;;;;;;14.56;36.96;103489.97;4973505;28;20030;-77
2021/04/03 00:40:43;;;;;;;14.80;11.88;;;;;;;14.57;36.81;103490.81;4973396;28;20062;-76
2021/04/03 00:43:13;;;;;;;15.90;11.50;;;;;;;14.47;36.96;103493.56;4973254;28;20050;-76
2021/04/03 00:45:39;;;;;;;18.80;11.93;;;;;;;14.39;37.11;103492.13;4973484;28;20027;-77
2021/04/03 00:48:06;;;;;;;19.15;11.70;;;;;;;14.45;36.90;103499.31;4973328;28;20065;-77
2021/04/03 00:50:34;;;;;;;17.30;11.10;;;;;;;14.39;36.71;103495.72;4973403;28;20030;-76
2021/04/03 00:53:01;;;;;;;12.68;11.30;;;;;;;14.40;36.78;103497.34;4973302;28;20042;-76
2021/04/03 00:55:27;;;;;;;13.60;10.23;;;;;;;14.34;36.78;103495.69;4973265;28;20034;-80
2021/04/03 00:57:54;;;;;;;27.60;11.00;;;;;;;14.27;37.09;103492.38;4973206;28;20033;-76
2021/04/03 01:00:20;;;;;;;22.23;11.27;;;;;;;14.39;37.04;103509.47;4971381;28;20042;-79
2021/04/03 01:02:46;;;;;;;21.05;11.13;;;;;;;14.44;37.04;103495.72;4973075;28;20447;-76
2021/04/03 01:05:18;;;;;;;22.90;11.30;;;;;;;14.47;37.09;103488.88;4973160;28;20037;-76
2021/04/03 01:07:44;;;;;;;29.77;12.35;;;;;;;14.59;37.34;103494.13;4973395;28;20034;-76
2021/04/03 01:10:17;;;;;;;19.50;10.68;;;;;;;15.02;36.36;103491.91;4973051;28;20045;-77
2021/04/03 01:12:57;;;;;;;18.20;10.55;;;;;;;15.09;36.50;103500.72;4973023;28;20022;-78
2021/04/03 01:15:32;;;;;;;15.30;10.00;;;;;;;15.10;36.40;103496.88;4973068;28;20163;-76
2021/04/03 01:18:13;;;;;;;17.17;8.70;;;;;;;15.16;36.46;103488.31;4973048;28;20027;-76
2021/04/03 01:21:07;;;;;;;14.35;8.63;;;;;;;15.17;36.51;103486.41;4973058;28;20026;-77
2021/04/03 01:23:44;;;;;;;21.92;10.25;;;;;;;15.23;36.59;103479.78;4972936;28;20549;-76
2021/04/03 01:26:44;;;;;;;18.17;9.98;;;;;;;15.11;36.36;103490.25;4973124;28;20110;-79
2021/04/03 01:29:28;;;;;;;16.70;9.52;;;;;;;15.02;36.43;103489.16;4972549;28;20122;-76
2021/04/03 01:31:56;;;;;;;14.65;9.82;;;;;;;14.97;36.53;103487.25;4972054;28;20030;-79
2021/04/03 01:34:25;;;;;;;15.02;11.20;;;;;;;14.97;36.49;103485.34;4972770;28;20050;-76
2021/04/03 01:36:57;;;;;;;14.48;10.27;;;;;;;14.95;36.44;103483.94;4972790;28;20114;-78
2021/04/03 01:39:24;;;;;;;14.82;10.32;;;;;;;14.95;36.02;103487.50;4972803;28;20031;-76
2021/04/03 01:41:53;;;;;;;12.15;9.63;;;;;;;14.84;36.39;103477.63;4972562;28;20394;-76
2021/04/03 01:44:27;;;;;;;16.50;10.10;;;;;;;14.82;36.29;103485.34;4972813;28;20026;-76
2021/04/03 01:46:53;;;;;;;13.10;9.98;;;;;;;14.82;36.37;103481.75;4972708;28;20027;-79
2021/04/03 01:49:23;;;;;;;14.43;8.82;;;;;;;14.77;36.27;103477.06;4972955;28;20050;-79
2021/04/03 01:51:50;;;;;;;15.77;9.15;;;;;;;14.76;36.27;103480.94;4972607;28;20027;-78
2021/04/03 01:54:17;;;;;;;15.23;9.27;;;;;;;14.77;36.24;103476.25;4972725;28;20030;-76
2021/04/03 01:56:45;;;;;;;13.32;9.65;;;;;;;14.71;36.23;103476.22;4972946;28;20377;-76
2021/04/03 01:59:13;;;;;;;18.27;10.07;;;;;;;14.69;36.31;103474.88;4972604;28;20023;-76
2021/04/03 02:01:41;;;;;;;19.40;11.13;;;;;;;14.59;36.68;103472.94;4972468;28;20077;-76
2021/04/03 02:04:08;;;;;;;15.45;10.18;;;;;;;14.32;37.28;103480.56;4972538;28;20026;-76
2021/04/03 02:06:36;;;;;;;15.38;10.77;;;;;;;14.34;37.32;103475.59;4971228;28;20110;-76
2021/04/03 02:09:04;;;;;;;14.60;10.35;;;;;;;14.33;37.42;103472.03;4972544;28;20023;-80
2021/04/03 02:11:33;;;;;;;22.33;11.63;;;;;;;14.36;37.59;103468.75;4972570;28;20073;-79
2021/04/03 02:14:00;;;;;;;23.20;11.73;;;;;;;14.38;37.57;103469.31;4976199;28;20101;-76
2021/04/03 02:16:29;;;;;;;15.18;10.23;;;;;;;14.45;37.46;103474.53;4976187;28;20506;-79
2021/04/03 02:18:56;;;;;;;17.38;10.80;;;;;;;14.47;37.59;103466.88;4976103;28;20498;-76
2021/04/03 02:21:22;;;;;;;24.08;11.48;;;;;;;14.55;37.55;103468.25;4975854;28;20026;-80
2021/04/03 02:23:48;;;;;;;18.20;10.85;;;;;;;14.49;37.58;103461.09;4975998;28;20062;-76
2021/04/03 02:26:13;;;;;;;20.17;9.93;;;;;;;14.40;37.43;103460.78;4975970;28;20113;-77
2021/04/03 02:28:40;;;;;;;15.70;10.65;;;;;;;14.34;37.67;103453.59;4976016;28;20027;-76
2021/04/03 02:31:06;;;;;;;16.92;10.52;;;;;;;14.32;37.46;103442.06;4975934;28;20516;-79
2021/04/03 02:33:31;;;;;;;15.27;9.73;;;;;;;14.16;37.69;103447.53;4976088;28;20027;-76
2021/04/03 02:35:57;;;;;;;15.50;10.13;;;;;;;14.25;37.50;103444.25;4975997;28;20650;-76
2021/04/03 02:38:22;;;;;;;17.67;10.85;;;;;;;14.28;37.44;103447.28;4976026;28;20533;-78
2021/04/03 02:40:48;;;;;;;15.88;10.60;;;;;;;14.29;37.57;103443.44;4975925;28;20154;-76
2021/04/03 02:43:29;;;;;;;15.18;9.65;;;;;;;14.24;37.50;103448.91;4975395;28;20578;-76
2021/04/03 02:46:39;;;;;;;22.67;10.13;;;;;;;14.21;37.60;103449.47;4975916;28;20051;-78
2021/04/03 02:49:12;;;;;;;17.50;10.88;;;;;;;14.19;37.48;103454.41;4953847;29;20034;-76
2021/04/03 02:51:43;;;;;;;18.13;11.07;;;;;;;14.23;37.59;103457.44;4971941;28;20117;-77
2021/04/03 02:54:10;;;;;;;19.70;11.27;;;;;;;14.27;37.84;103462.13;4975508;28;20034;-76
2021/04/03 02:56:42;;;;;;;13.93;10.77;;;;;;;14.25;37.57;103458.81;4975407;28;20030;-80
2021/04/03 02:59:19;;;;;;;19.05;10.68;;;;;;;14.24;37.69;103467.34;4975606;28;20070;-75
2021/04/03 03:01:47;;;;;;;16.70;11.23;;;;;;;14.26;37.54;103467.88;4975581;28;20035;-76
2021/04/03 03:04:15;;;;;;;16.67;12.75;;;;;;;14.30;37.61;103460.75;4975368;28;20386;-76
2021/04/03 03:06:40;;;;;;;20.83;11.07;;;;;;;14.27;37.84;103462.13;4975224;28;20046;-80
2021/04/03 03:09:06;;;;;;;16.65;9.82;;;;;;;14.29;37.80;103468.19;4975175;28;20043;-77
2021/04/03 03:11:34;;;;;;;19.10;11.55;;;;;;;14.29;37.87;103475.63;4975185;28;20105;-76
2021/04/03 03:14:00;;;;;;;16.98;10.02;;;;;;;14.32;37.74;103475.06;4975094;28;20097;-76
2021/04/03 03:16:27;;;;;;;16.13;10.25;;;;;;;14.28;37.65;103473.94;4975090;28;20167;-79
2021/04/03 03:18:54;;;;;;;13.25;10.60;;;;;;;14.27;37.70;103473.13;4975028;28;20023;-79
2021/04/03 03:21:20;;;;;;;17.90;10.55;;;;;;;14.26;37.80;103465.97;4974918;28;20058;-79
2021/04/03 03:23:46;;;;;;;18.85;12.02;;;;;;;14.25;37.83;103474.50;4974459;28;20030;-76
2021/04/03 03:26:11;;;;;;;17.48;10.55;;;;;;;14.25;37.90;103469.81;4973653;28;20031;-79
2021/04/03 03:28:39;;;;;;;14.23;10.10;;;;;;;14.24;37.68;103476.41;4974846;28;20054;-80
2021/04/03 03:31:04;;;;;;;20.83;10.48;;;;;;;14.24;37.80;103468.16;4974796;28;20062;-78
2021/04/03 03:33:30;;;;;;;19.40;10.65;;;;;;;14.22;37.82;103467.63;4974738;28;20601;-80
2021/04/03 03:35:59;;;;;;;20.27;10.85;;;;;;;14.10;37.87;103467.03;4974993;28;20031;-76
2021/04/03 03:38:25;;;;;;;15.05;9.23;;;;;;;14.09;37.75;103462.63;4974598;28;20031;-76
2021/04/03 03:40:54;;;;;;;17.08;10.20;;;;;;;14.24;37.53;103467.34;4974585;28;20165;-77
2021/04/03 03:43:20;;;;;;;14.32;9.32;;;;;;;14.06;37.72;103471.44;4973258;28;20118;-76
2021/04/03 03:45:46;;;;;;;15.27;9.45;;;;;;;14.02;37.84;103464.81;4974236;28;20042;-75
2021/04/03 03:48:12;;;;;;;15.95;10.82;;;;;;;13.97;37.80;103473.84;4974513;28;20568;-79
2021/04/03 03:50:38;;;;;;;18.67;10.82;;;;;;;13.96;37.96;103466.69;4974514;28;20058;-77
2021/04/03 03:53:04;;;;;;;16.42;9.70;;;;;;;13.92;38.10;103470.28;4974379;28;20033;-77
2021/04/03 03:55:30;;;;;;;20.95;11.95;;;;;;;13.91;37.92;103463.13;4974298;28;20106;-76
2021/04/03 03:57:56;;;;;;;16.52;10.52;;;;;;;13.91;38.01;103468.63;4974286;28;20031;-79
2021/04/03 04:00:21;;;;;;;15.45;9.20;;;;;;;13.89;38.06;103474.38;4974176;28;20362;-76
2021/04/03 04:02:47;;;;;;;17.70;9.60;;;;;;;13.88;38.00;103470.81;4974183;28;20486;-76
2021/04/03 04:05:13;;;;;;;17.70;12.35;;;;;;;13.77;38.05;103469.13;4979226;28;20037;-76
2021/04/03 04:07:39;;;;;;;13.23;10.13;;;;;;;13.78;37.83;103468.03;4993278;28;20042;-76
2021/04/03 04:10:07;;;;;;;16.92;9.38;;;;;;;13.79;37.95;103466.09;4993825;28;20041;-78
2021/04/03 04:12:33;;;;;;;12.17;9.57;;;;;;;13.80;38.07;103465.00;4993452;28;20026;-76
2021/04/03 04:14:59;;;;;;;13.25;9.40;;;;;;;13.77;37.86;103471.88;4993388;28;20041;-77
2021/04/03 04:17:25;;;;;;;14.43;10.75;;;;;;;13.71;37.94;103475.69;4993311;28;20026;-75
2021/04/03 04:19:50;;;;;;;13.55;10.05;;;;;;;13.68;38.03;103465.25;4993301;28;20030;-77
2021/04/03 04:22:16;;;;;;;18.92;9.50;;;;;;;13.68;37.92;103473.47;4993178;28;20034;-80
2021/04/03 04:24:42;;;;;;;13.57;9.70;;;;;;;13.70;37.89;103473.22;4993475;28;20030;-77
2021/04/03 04:27:09;;;;;;;10.68;8.50;;;;;;;13.66;37.87;103483.91;4993202;28;20030;-80
2021/04/03 04:29:35;;;;;;;17.75;10.35;;;;;;;13.65;37.85;103478.69;4993051;28;20393;-79
2021/04/03 04:32:04;;;;;;;14.00;9.85;;;;;;;13.66;37.78;103483.06;4993013;28;20040;-78
2021/04/03 04:34:29;;;;;;;16.67;10.20;;;;;;;13.64;37.63;103482.53;4992251;28;20033;-80
2021/04/03 04:36:55;;;;;;;16.10;9.60;;;;;;;13.46;38.03;103484.63;4993248;28;20034;-77
2021/04/03 04:39:21;;;;;;;13.55;9.10;;;;;;;13.53;38.02;103490.72;4992869;28;20030;-79
2021/04/03 04:41:46;;;;;;;23.38;11.40;;;;;;;13.49;37.91;103488.75;4992846;28;20030;-77
2021/04/03 04:44:12;;;;;;;14.95;8.70;;;;;;;13.52;37.90;103482.72;4992858;28;20054;-76
2021/04/03 04:46:38;;;;;;;15.27;10.45;;;;;;;13.51;37.64;103479.16;4992765;28;20042;-78
2021/04/03 04:49:04;;;;;;;20.55;10.60;;;;;;;13.53;37.66;103484.41;4992851;28;20081;-76
2021/04/03 04:51:29;;;;;;;15.60;10.50;;;;;;;13.47;38.09;103496.44;4992685;28;20033;-80
2021/04/03 04:53:55;;;;;;;20.40;9.40;;;;;;;13.37;37.99;103496.34;4992701;28;20030;-81
2021/04/03 04:56:20;;;;;;;15.82;10.48;;;;;;;13.66;37.39;103483.06;4992728;28;20030;-76
2021/04/03 04:58:46;;;;;;;16.67;10.10;;;;;;;13.71;37.09;103478.44;4992541;28;20037;-76
2021/04/03 05:01:11;;;;;;;16.00;9.70;;;;;;;13.72;37.21;103487.50;4992594;28;20470;-76
2021/04/03 05:03:37;;;;;;;13.35;9.70;;;;;;;13.72;37.14;103480.09;4992547;28;20034;-76
2021/04/03 05:06:02;;;;;;;16.17;10.00;;;;;;;13.72;37.09;103493.81;4992594;28;20160;-77
2021/04/03 05:08:28;;;;;;;13.30;9.10;;;;;;;13.72;37.14;103488.31;4990872;28;20073;-80
2021/04/03 05:10:54;;;;;;;17.27;10.35;;;;;;;13.68;36.89;103492.72;4992499;28;20030;-76
2021/04/03 05:13:19;;;;;;;16.52;9.40;;;;;;;13.70;37.10;103486.94;4991033;28;20428;-79
2021/04/03 05:15:45;;;;;;;16.23;10.25;;;;;;;13.69;37.04;103491.63;4992427;28;20026;-76
2021/04/03 05:18:10;;;;;;;17.48;9.80;;;;;;;13.60;36.99;103480.31;4992392;28;20362;-76
2021/04/03 05:20:36;;;;;;;16.63;10.40;;;;;;;13.44;37.57;103484.03;4992428;28;20363;-80
2021/04/03 05:23:02;;;;;;;14.23;9.48;;;;;;;13.46;37.36;103483.81;4992299;28;20045;-76
2021/04/03 05:25:27;;;;;;;17.95;9.27;;;;;;;13.50;37.13;103485.75;4992553;28;20038;-78
2021/04/03 05:27:53;;;;;;;18.25;9.10;;;;;;;13.23;37.68;103491.34;4992220;28;20529;-76
2021/04/03 05:30:19;;;;;;;16.45;9.30;;;;;;;13.06;37.91;103491.44;4992232;28;20062;-76
2021/04/03 05:32:45;;;;;;;17.80;9.43;;;;;;;12.95;38.27;103491.66;4992256;28;20088;-78
2021/04/03 05:35:11;;;;;;;12.20;8.85;;;;;;;12.92;38.32;103495.75;4992109;28;20041;-76
2021/04/03 05:37:37;;;;;;;15.60;9.38;;;;;;;12.85;38.37;103492.41;4992399;28;20034;-78
2021/04/03 05:40:03;;;;;;;13.27;9.13;;;;;;;12.87;38.28;103500.38;4992200;28;20500;-76
2021/04/03 05:42:34;;;;;;;14.77;9.95;;;;;;;12.77;38.51;103501.94;4991802;28;20497;-76
2021/04/03 05:45:02;;;;;;;17.70;10.20;;;;;;;12.76;38.41;103508.50;4992455;28;20049;-77
2021/04/03 05:47:28;;;;;;;13.18;9.55;;;;;;;12.71;38.63;103513.94;4995510;28;20080;-76
2021/04/03 05:49:54;;;;;;;13.00;10.10;;;;;;;12.80;38.52;103513.47;4996137;28;20101;-79
2021/04/03 05:52:20;;;;;;;17.33;9.30;;;;;;;12.72;38.47;103512.84;4996120;28;20173;-76
2021/04/03 05:54:46;;;;;;;21.65;10.60;;;;;;;12.75;38.55;103520.56;4995974;28;20026;-76
2021/04/03 05:57:11;;;;;;;17.13;9.13;;;;;;;12.73;38.58;103508.19;4996215;28;20102;-77
2021/04/03 05:59:37;;;;;;;14.30;9.55;;;;;;;12.87;38.19;103511.34;4994871;28;20439;-76
2021/04/03 06:02:06;;;;;;;18.35;10.20;;;;;;;12.90;38.03;103508.88;4996044;28;20034;-77
2021/04/03 06:04:31;;;;;;;18.02;10.13;;;;;;;12.93;38.07;103511.13;4996040;28;20033;-77
2021/04/03 06:06:58;;;;;;;15.45;8.35;;;;;;;12.92;38.10;103514.09;4996041;28;20030;-76
2021/04/03 06:09:23;;;;;;;14.52;8.82;;;;;;;12.93;38.02;103519.38;4995804;28;20041;-76
2021/04/03 06:11:50;;;;;;;15.98;9.25;;;;;;;12.88;38.23;103523.97;4996109;28;20034;-76
2021/04/03 06:14:19;;;;;;;20.52;9.20;;;;;;;12.89;37.98;103517.38;4995939;28;20030;-79
2021/04/03 06:16:49;;;;;;;14.40;9.57;;;;;;;12.93;38.17;103518.53;4995577;28;20062;-79
2021/04/03 06:19:16;;;;;;;17.13;9.55;;;;;;;12.89;38.16;103520.97;4995545;28;20073;-75
2021/04/03 06:21:48;;;;;;;13.50;8.90;;;;;;;12.91;38.29;103520.69;4995712;28;20362;-76
2021/04/03 06:24:26;;;;;;;19.50;9.45;;;;;;;12.95;38.36;103519.09;4995575;28;20030;-76
2021/04/03 06:27:09;;;;;;;14.23;8.43;;;;;;;13.02;38.26;103516.97;4995405;28;20073;-76
2021/04/03 06:29:49;;;;;;;18.52;10.57;;;;;;;13.06;38.18;103518.06;4995538;28;20038;-76
2021/04/03 06:32:20;;;;;;;15.15;9.27;;;;;;;13.14;38.06;103519.50;4995494;28;20034;-76
2021/04/03 06:34:48;;;;;;;15.15;9.32;;;;;;;13.16;38.12;103520.09;4995258;28;20026;-76
2021/04/03 06:37:13;;;;;;;15.68;9.57;;;;;;;13.15;38.11;103518.41;4995264;28;20077;-77
2021/04/03 06:40:01;;;;;;;16.85;8.80;;;;;;;12.97;38.77;103509.50;4985941;28;20022;-75
2021/04/03 06:42:44;;;;;;;20.77;8.93;;;;;;;13.37;37.86;103518.34;4988376;28;20046;-75
2021/04/03 06:45:29;;;;;;;17.65;9.15;;;;;;;13.60;37.62;103523.41;4986539;28;20030;-78
2021/04/03 06:48:01;;;;;;;13.45;9.15;;;;;;;13.80;37.52;103526.28;4986422;28;20022;-77
2021/04/03 06:50:31;;;;;;;18.65;8.80;;;;;;;13.94;37.42;103521.13;4985850;28;20093;-75
2021/04/03 06:52:57;;;;;;;18.67;9.30;;;;;;;13.96;37.45;103526.34;4985729;28;20058;-76
2021/04/03 06:55:23;;;;;;;16.92;8.60;;;;;;;14.04;37.53;103521.16;4985755;28;20025;-76
2021/04/03 06:57:50;;;;;;;13.70;7.53;;;;;;;14.18;37.39;103529.75;4999856;28;20034;-81
2021/04/03 07:00:18;;;;;;;16.77;9.52;;;;;;;14.20;37.62;103538.53;4985341;28;20023;-76
2021/04/03 07:02:51;;;;;;;13.90;9.45;;;;;;;14.29;37.23;103536.13;4994677;28;20026;-76
2021/04/03 07:05:19;;;;;;;31.27;10.55;;;;;;;14.33;37.55;103535.28;4993493;28;20027;-75
2021/04/03 07:07:45;;;;;;;16.45;8.55;;;;;;;14.48;37.47;103534.53;4994627;28;20101;-75
2021/04/03 07:10:15;;;;;;;14.10;9.05;;;;;;;14.56;37.53;103535.94;4994621;28;20026;-76
2021/04/03 07:12:41;;;;;;;19.45;10.32;;;;;;;14.70;37.55;103539.81;4994531;28;20473;-75
2021/04/03 07:15:13;;;;;;;28.30;10.77;;;;;;;14.77;37.65;103536.78;4994413;28;20031;-74
2021/04/03 07:17:40;;;;;;;21.88;10.05;;;;;;;15.03;37.64;103540.38;4993259;28;20497;-74
2021/04/03 07:20:12;;;;;;;17.75;9.52;;;;;;;15.19;37.43;103539.28;4992658;28;20030;-77
2021/04/03 07:22:41;;;;;;;12.15;9.27;;;;;;;15.33;37.43;103545.03;4991435;28;20038;-76
2021/04/03 07:25:08;;;;;;;13.27;9.05;;;;;;;15.37;37.56;103546.16;4993638;28;20041;-75
2021/04/03 07:27:37;;;;;;;16.48;9.75;;;;;;;15.50;37.49;103551.09;4992429;28;20027;-75
2021/04/03 07:30:05;;;;;;;13.38;8.40;;;;;;;15.66;37.68;103557.44;4993790;28;20019;-75
2021/04/03 07:32:42;;;;;;;16.60;9.60;;;;;;;15.72;37.67;103553.56;4993937;28;20504;-74
2021/04/03 07:35:17;;;;;;;14.60;8.88;;;;;;;15.82;37.70;103559.88;4993015;28;20038;-74
2021/04/03 07:37:44;;;;;;;17.33;9.25;;;;;;;15.94;38.12;103558.72;4994121;28;20112;-75
2021/04/03 07:40:15;;;;;;;22.67;9.52;;;;;;;16.20;37.84;103567.72;4994113;28;20026;-76
2021/04/03 07:42:41;;;;;;;13.45;9.40;;;;;;;16.38;38.06;103561.56;4992726;28;20461;-81
2021/04/03 07:45:30;;;;;;;14.25;8.13;;;;;;;16.50;38.20;103553.78;5342929;23;20142;-75
2021/04/03 07:47:55;;;;;;;17.75;9.13;;;;;;;16.75;37.96;103551.97;4966431;28;20110;-78
2021/04/03 07:50:47;;;;;;;14.20;8.60;;;;;;;16.78;38.53;103554.19;4963767;28;20157;-76
2021/04/03 07:53:13;;;;;;;16.48;8.88;;;;;;;17.03;38.58;103562.28;4963801;28;20058;-80
2021/04/03 07:55:42;;;;;;;15.30;9.07;;;;;;;17.13;38.76;103562.19;4964033;28;20014;-79
2021/04/03 07:58:23;;;;;;;16.42;9.80;;;;;;;16.96;39.75;103558.19;4965586;28;20101;-75
2021/04/03 08:00:50;;;;;;;17.77;8.38;;;;;;;17.13;39.77;103559.41;4965734;28;20053;-76
2021/04/03 08:03:20;;;;;;;17.60;9.10;;;;;;;17.14;39.78;103569.34;4964464;28;20514;-77
2021/04/03 08:05:48;;;;;;;13.85;8.73;;;;;;;17.40;39.49;103567.19;4962970;28;20027;-75
2021/04/03 08:08:17;;;;;;;14.05;8.38;;;;;;;17.63;39.18;103565.59;4964616;28;20034;-78
2021/04/03 08:10:43;;;;;;;13.25;8.10;;;;;;;17.48;39.68;103568.50;4959780;28;20117;-78
2021/04/03 08:13:09;;;;;;;12.98;6.95;;;;;;;17.68;39.63;103564.69;4964984;28;20223;-79
2021/04/03 08:15:35;;;;;;;22.73;8.95;;;;;;;17.81;39.50;103571.50;4962330;28;20481;-79
2021/04/03 08:18:01;;;;;;;12.15;7.68;;;;;;;17.69;39.66;103569.94;4963522;28;20031;-78
2021/04/03 08:20:26;;;;;;;17.05;7.75;;;;;;;17.75;39.45;103574.31;4964854;28;20027;-79
2021/04/03 08:23:06;;;;;;;15.20;8.18;;;;;;;17.60;40.21;103571.69;4965355;28;20045;-76
2021/04/03 08:25:32;;;;;;;13.77;7.97;;;;;;;17.05;41.11;103565.56;4961665;28;20064;-74
2021/04/03 08:27:59;;;;;;;13.95;7.75;;;;;;;17.40;40.67;103567.19;4955038;28;20277;-79
2021/04/03 08:30:32;;;;;;;13.25;8.63;;;;;;;17.11;41.26;103572.69;4955695;28;20417;-79
2021/04/03 08:33:12;;;;;;;17.30;8.15;;;;;;;17.32;40.98;103573.34;4968246;28;20027;-73
2021/04/03 08:35:41;;;;;;;13.27;7.82;;;;;;;17.24;40.96;103573.16;4968630;28;20086;-75
2021/04/03 08:38:24;;;;;;;13.07;8.60;;;;;;;17.65;40.46;103563.34;4968528;28;20027;-76
2021/04/03 08:40:52;;;;;;;12.55;8.90;;;;;;;17.80;40.27;103567.91;4964691;28;20038;-76
2021/04/03 08:43:20;;;;;;;11.70;8.95;;;;;;;17.89;40.46;103576.38;4957809;28;20035;-78
2021/04/03 08:45:46;;;;;;;16.92;9.05;;;;;;;17.89;40.67;103568.09;4964298;28;20071;-78
2021/04/03 08:48:12;;;;;;;13.57;8.40;;;;;;;17.72;40.87;103566.63;4955566;28;20043;-76
2021/04/03 08:50:40;;;;;;;14.95;8.73;;;;;;;17.93;40.70;103569.97;4962102;28;20039;-79
2021/04/03 08:53:06;;;;;;;17.00;9.52;;;;;;;18.30;40.30;103571.19;4954343;28;20417;-74
2021/04/03 08:55:32;;;;;;;15.65;9.65;;;;;;;18.15;40.55;103572.19;4956033;28;20034;-73
2021/04/03 08:58:00;;;;;;;21.92;9.27;;;;;;;18.18;40.39;103577.13;4962808;28;20027;-76
2021/04/03 09:00:26;;;;;;;13.02;8.00;;;;;;;18.15;40.71;103572.19;4961430;28;20412;-76
2021/04/03 09:02:53;;;;;;;14.85;9.10;;;;;;;18.23;40.00;103567.94;4956884;28;20039;-77
2021/04/03 09:05:19;;;;;;;16.73;9.15;;;;;;;18.14;40.65;103573.31;4953449;28;20062;-75
2021/04/03 09:07:45;;;;;;;18.33;9.55;;;;;;;17.91;40.93;103568.59;4961958;28;20389;-75
2021/04/03 09:10:12;;;;;;;14.65;9.30;;;;;;;18.11;40.72;103575.84;4960170;28;20109;-73
2021/04/03 09:12:38;;;;;;;18.60;10.00;;;;;;;18.22;40.77;103572.66;4961545;28;20034;-75
2021/04/03 09:15:07;;;;;;;15.32;9.13;;;;;;;18.16;41.03;103573.84;4961787;28;20023;-75
2021/04/03 09:17:32;;;;;;;13.07;9.13;;;;;;;18.34;40.89;103568.63;4961000;28;20059;-76
2021/04/03 09:20:09;;;;;;;20.92;9.95;;;;;;;18.34;41.16;103572.22;4957665;28;20062;-76
2021/04/03 09:22:40;;;;;;;13.75;9.27;;;;;;;18.34;41.44;103569.44;4961288;28;20080;-74
2021/04/03 09:25:11;;;;;;;15.90;9.02;;;;;;;18.46;41.08;103566.25;4963038;28;20019;-75
2021/04/03 09:27:37;;;;;;;17.33;10.63;;;;;;;18.52;41.01;103565.88;4963160;28;20027;-75
2021/04/03 09:30:10;;;;;;;14.73;9.85;;;;;;;18.48;41.53;103561.25;4962491;28;20027;-75
2021/04/03 09:32:44;;;;;;;21.77;10.77;;;;;;;18.56;41.14;103555.03;4961282;28;20488;-75
2021/04/03 09:35:12;;;;;;;19.67;11.55;;;;;;;19.02;40.57;103557.09;4970288;28;20370;-78
2021/04/03 09:37:38;;;;;;;22.27;11.45;;;;;;;19.09;40.39;103555.59;4971086;28;20477;-77
2021/04/03 09:40:08;;;;;;;25.63;11.68;;;;;;;19.18;40.21;103555.72;4973697;28;20042;-76
2021/04/03 09:42:34;;;;;;;;;;;;;;;19.35;40.11;103566.25;4974612;28;20038;-74
2021/04/03 09:45:04;;;;;;;20.85;11.30;;;;;;;19.41;40.16;103565.84;4973448;28;19918;-76
2021/04/03 09:47:30;;;;;;;19.00;11.27;;;;;;;19.80;39.15;103553.50;4969618;28;20031;-79
2021/04/03 09:49:56;;;;;;;20.73;11.93;;;;;;;19.66;39.31;103558.22;4972589;28;20418;-75
2021/04/03 09:52:22;;;;;;;22.95;11.27;;;;;;;19.78;38.95;103564.06;4973904;28;20031;-79
2021/04/03 09:54:48;;;;;;;28.77;12.30;;;;;;;19.74;39.27;103570.56;4973351;28;20034;-80
2021/04/03 09:57:15;;;;;;;17.75;11.40;;;;;;;19.87;39.26;103558.63;4973364;28;20361;-76
2021/04/03 09:59:42;;;;;;;21.65;11.23;;;;;;;20.02;38.85;103568.59;4973648;28;20031;-79
2021/04/03 10:02:09;;;;;;;22.73;11.75;;;;;;;20.13;38.60;103564.47;4973626;28;20377;-79
2021/04/03 10:04:35;;;;;;;15.32;11.10;;;;;;;20.07;38.84;103560.16;4973511;28;20050;-80
2021/04/03 10:07:00;;;;;;;20.45;10.70;;;;;;;20.08;38.88;103556.25;4973453;28;20027;-79
2021/04/03 10:09:27;;;;;;;23.83;12.40;;;;;;;20.13;38.67;103554.19;4973453;28;20023;-76
2021/04/03 10:11:53;;;;;;;21.55;10.95;;;;;;;19.98;39.02;103557.28;4973446;28;20050;-78
2021/04/03 10:14:19;;;;;;;18.10;10.43;;;;;;;20.30;38.56;103559.09;4973410;28;20031;-79
2021/04/03 10:16:45;;;;;;;20.88;10.75;;;;;;;20.31;38.22;103546.84;4973497;28;20031;-74
2021/04/03 10:19:11;;;;;;;21.52;10.25;;;;;;;20.37;38.01;103550.34;4973487;28;20031;-74
2021/04/03 10:21:36;;;;;;;16.10;9.13;;;;;;;20.43;37.85;103552.69;4973266;28;20038;-76
2021/04/03 10:24:02;;;;;;;20.75;11.15;;;;;;;20.70;37.32;103551.81;4973731;28;20035;-76
2021/04/03 10:26:28;;;;;;;20.50;9.80;;;;;;;20.75;37.40;103546.13;4973597;28;20523;-77
2021/04/03 10:28:54;;;;;;;15.57;9.40;;;;;;;20.71;36.89;103544.31;4973548;28;20465;-80
2021/04/03 10:31:20;;;;;;;15.70;10.38;;;;;;;20.82;36.87;103544.88;4973303;28;20054;-78
2021/04/03 10:33:45;;;;;;;16.00;9.77;;;;;;;20.78;37.04;103541.91;4975488;28;20073;-80
2021/04/03 10:36:12;;;;;;;21.23;9.95;;;;;;;20.79;37.26;103549.13;4976209;28;20109;-74
2021/04/03 10:38:38;;;;;;;12.95;8.30;;;;;;;21.05;36.78;103540.97;4976142;28;20026;-80
2021/04/03 10:41:05;;;;;;;11.43;6.72;;;;;;;21.09;36.39;103535.59;4975882;28;20057;-79
2021/04/03 10:43:31;;;;;;;19.90;8.63;;;;;;;21.12;36.42;103544.13;4975952;28;20041;-80
2021/04/03 10:45:58;;;;;;;17.77;7.80;;;;;;;21.19;35.88;103544.47;4975565;28;20502;-77
2021/04/03 10:48:23;;;;;;;18.58;8.52;;;;;;;21.14;35.94;103541.81;4975427;28;20035;-78
2021/04/03 10:50:49;;;;;;;15.32;8.35;;;;;;;21.32;35.49;103540.00;4975872;28;20041;-80
2021/04/03 10:53:15;;;;;;;16.40;7.97;;;;;;;21.51;35.41;103539.75;4975614;28;20040;-80
2021/04/03 10:55:42;;;;;;;15.50;7.05;;;;;;;21.58;35.11;103543.72;4975613;28;20071;-79
2021/04/03 10:58:08;;;;;;;23.00;7.90;;;;;;;21.64;34.77;103546.38;4975554;28;20035;-75
2021/04/03 11:00:34;;;;;;;17.15;7.45;;;;;;;21.58;34.76;103540.13;4975445;28;20053;-80
2021/04/03 11:02:59;;;;;;;16.20;7.70;;;;;;;21.67;34.44;103538.19;4975363;28;20031;-77
2021/04/03 11:05:26;;;;;;;18.88;8.18;;;;;;;21.59;34.73;103545.38;4975350;28;20038;-80
2021/04/03 11:07:51;;;;;;;10.82;7.45;;;;;;;21.60;34.40;103540.63;4975364;28;20500;-80
2021/04/03 11:10:18;;;;;;;15.98;7.88;;;;;;;21.62;34.41;103538.34;4975271;28;20027;-79
2021/04/03 11:12:44;;;;;;;15.45;7.70;;;;;;;21.76;34.04;103541.00;4975407;28;20070;-77
2021/04/03 11:15:10;;;;;;;13.73;6.40;;;;;;;21.58;34.01;103546.50;4975043;28;20073;-78
2021/04/03 11:17:36;;;;;;;42.75;10.77;;;;;;;21.62;34.00;103546.72;4975028;28;20058;-77
2021/04/03 11:20:04;;;;;;;12.93;6.85;;;;;;;21.55;34.11;103536.03;4975202;28;20082;-78